createdAt,value
2018-12-29T00:01:37.948Z,81.08
2018-12-29T00:04:10.013Z,80.95
2018-12-29T00:06:42.014Z,80.67
2018-12-29T00:09:14.020Z,80.74
2018-12-29T00:11:46.046Z,80.73
2018-12-29T00:14:18.055Z,80.35
2018-12-29T00:16:50.046Z,80.63
2018-12-29T00:19:22.076Z,80.78
2018-12-29T00:21:54.120Z,80.98
2018-12-29T00:24:26.108Z,81.19
2018-12-29T00:26:58.092Z,81.20
2018-12-29T00:29:30.167Z,80.99
2018-12-29T00:32:02.143Z,80.88
2018-12-29T00:34:34.181Z,80.77
2018-12-29T00:37:06.182Z,80.65
2018-12-29T00:39:38.192Z,80.49
2018-12-29T00:42:10.325Z,79.98
2018-12-29T00:44:42.318Z,80.12
2018-12-29T00:47:14.338Z,80.11
2018-12-29T00:49:46.360Z,80.08
2018-12-29T00:52:18.380Z,80.09
2018-12-29T00:54:50.391Z,80.07
2018-12-29T00:57:22.404Z,79.76
2018-12-29T00:59:54.398Z,79.43
2018-12-29T01:02:26.415Z,78.73
2018-12-29T01:04:58.426Z,79.38
2018-12-29T01:07:30.456Z,79.34
2018-12-29T01:10:02.620Z,79.45
2018-12-29T01:12:34.623Z,79.86
2018-12-29T01:15:10.033Z,80.10
2018-12-29T01:17:40.480Z,80.32
2018-12-29T01:20:12.476Z,80.10
2018-12-29T01:22:44.465Z,80.11
2018-12-29T01:25:16.435Z,80.46
2018-12-29T01:27:48.428Z,80.22
2018-12-29T01:30:20.388Z,79.57
2018-12-29T01:32:52.390Z,79.42
2018-12-29T01:35:24.356Z,79.64
2018-12-29T01:37:56.360Z,79.89
2018-12-29T01:40:28.328Z,79.91
2018-12-29T01:43:00.316Z,79.69
2018-12-29T01:45:32.274Z,80.01
2018-12-29T01:48:04.271Z,79.84
2018-12-29T01:50:36.232Z,79.46
2018-12-29T01:53:08.232Z,79.57
2018-12-29T01:55:40.208Z,79.75
2018-12-29T01:58:12.195Z,79.54
2018-12-29T02:00:44.136Z,79.65
2018-12-29T02:03:16.143Z,79.44
2018-12-29T02:05:48.111Z,79.68
2018-12-29T02:08:20.087Z,79.79
2018-12-29T02:10:52.095Z,79.60
2018-12-29T02:13:24.068Z,79.75
2018-12-29T02:15:56.074Z,80.10
2018-12-29T02:18:28.073Z,79.92
2018-12-29T02:21:00.069Z,79.73
2018-12-29T02:23:32.040Z,79.41
2018-12-29T02:26:04.029Z,78.69
2018-12-29T02:28:35.966Z,78.97
2018-12-29T02:31:07.977Z,77.35
2018-12-29T02:33:39.948Z,78.46
2018-12-29T02:36:11.929Z,78.37
2018-12-29T02:38:43.964Z,78.06
2018-12-29T02:41:15.959Z,78.53
2018-12-29T02:43:47.905Z,78.79
2018-12-29T02:46:19.890Z,78.48
2018-12-29T02:48:51.863Z,78.17
2018-12-29T02:51:23.861Z,78.02
2018-12-29T02:53:55.841Z,77.53
2018-12-29T02:56:27.808Z,77.97
2018-12-29T02:58:59.777Z,78.34
2018-12-29T03:01:31.756Z,78.44
2018-12-29T03:04:03.741Z,78.97
2018-12-29T03:06:35.725Z,78.92
2018-12-29T03:09:07.697Z,79.01
2018-12-29T03:11:39.798Z,78.60
2018-12-29T03:14:11.743Z,78.88
2018-12-29T03:16:43.735Z,78.89
2018-12-29T03:19:15.724Z,78.71
2018-12-29T03:21:47.695Z,77.99
2018-12-29T03:24:19.686Z,78.49
2018-12-29T03:26:51.676Z,78.62
2018-12-29T03:29:23.679Z,78.80
2018-12-29T03:31:55.673Z,77.90
2018-12-29T03:34:27.626Z,78.60
2018-12-29T03:36:59.612Z,78.97
2018-12-29T03:39:31.708Z,78.98
2018-12-29T03:42:04.036Z,78.80
2018-12-29T03:44:36.023Z,78.57
2018-12-29T03:47:08.016Z,78.61
2018-12-29T03:49:40.003Z,78.79
2018-12-29T03:52:11.958Z,78.89
2018-12-29T03:54:43.989Z,79.10
2018-12-29T03:57:15.970Z,78.97
2018-12-29T03:59:47.938Z,79.07
2018-12-29T04:02:19.940Z,79.12
2018-12-29T04:04:51.928Z,79.04
2018-12-29T04:07:23.881Z,78.98
2018-12-29T04:09:55.848Z,78.99
2018-12-29T04:12:30.340Z,78.76
2018-12-29T04:15:02.312Z,78.31
2018-12-29T04:17:34.281Z,78.49
2018-12-29T04:20:06.258Z,78.55
2018-12-29T04:22:38.221Z,78.37
2018-12-29T04:25:10.201Z,78.20
2018-12-29T04:27:42.176Z,77.79
2018-12-29T04:30:14.122Z,77.95
2018-12-29T04:32:46.100Z,77.98
2018-12-29T04:35:18.079Z,78.18
2018-12-29T04:37:50.030Z,78.12
2018-12-29T04:40:22.025Z,77.76
2018-12-29T04:42:54.040Z,77.94
2018-12-29T04:45:26.032Z,78.00
2018-12-29T04:47:57.974Z,77.54
2018-12-29T04:50:29.951Z,77.76
2018-12-29T04:53:01.929Z,77.76
2018-12-29T04:55:33.975Z,78.25
2018-12-29T04:58:05.924Z,77.95
2018-12-29T05:00:37.910Z,78.14
2018-12-29T05:03:09.902Z,78.15
2018-12-29T05:05:41.891Z,77.93
2018-12-29T05:08:13.860Z,77.77
2018-12-29T05:10:45.849Z,77.88
2018-12-29T05:13:17.924Z,78.03
2018-12-29T05:15:49.924Z,77.89
2018-12-29T05:18:21.890Z,77.83
2018-12-29T05:20:53.893Z,77.79
2018-12-29T05:23:25.879Z,77.83
2018-12-29T05:25:57.852Z,77.69
2018-12-29T05:28:29.850Z,77.77
2018-12-29T05:31:01.805Z,77.64
2018-12-29T05:33:33.764Z,77.56
2018-12-29T05:36:05.711Z,77.51
2018-12-29T05:38:37.698Z,77.51
2018-12-29T05:41:09.680Z,77.89
2018-12-29T05:43:41.689Z,77.43
2018-12-29T05:46:20.138Z,77.77
2018-12-29T05:48:47.583Z,77.47
2018-12-29T05:51:19.537Z,77.84
2018-12-29T05:53:51.529Z,77.66
2018-12-29T05:56:23.512Z,77.94
2018-12-29T05:58:55.471Z,78.15
2018-12-29T06:01:27.449Z,78.28
2018-12-29T06:03:59.465Z,78.02
2018-12-29T06:06:31.425Z,77.84
2018-12-29T06:09:05.434Z,77.47
2018-12-29T06:11:37.403Z,76.99
2018-12-29T06:14:09.358Z,77.88
2018-12-29T06:16:41.325Z,77.90
2018-12-29T06:19:13.284Z,77.94
2018-12-29T06:21:45.236Z,77.53
2018-12-29T06:24:17.211Z,77.80
2018-12-29T06:26:49.174Z,77.88
2018-12-29T06:29:21.157Z,77.92
2018-12-29T06:31:53.213Z,78.03
2018-12-29T06:34:25.185Z,77.75
2018-12-29T06:36:57.147Z,77.37
2018-12-29T06:39:29.141Z,77.12
2018-12-29T06:42:01.091Z,77.17
2018-12-29T06:44:33.101Z,77.28
2018-12-29T06:47:05.101Z,77.35
2018-12-29T06:49:37.081Z,77.07
2018-12-29T06:52:09.050Z,77.16
2018-12-29T06:54:41.031Z,77.45
2018-12-29T06:57:13.026Z,77.54
2018-12-29T06:59:44.972Z,77.93
2018-12-29T07:02:16.979Z,77.92
2018-12-29T07:04:48.924Z,77.60
2018-12-29T07:07:20.928Z,77.88
2018-12-29T07:09:52.913Z,77.90
2018-12-29T07:12:24.913Z,78.02
2018-12-29T07:14:56.875Z,78.20
2018-12-29T07:17:28.867Z,78.50
2018-12-29T07:20:00.823Z,78.49
2018-12-29T07:22:32.837Z,78.68
2018-12-29T07:25:04.797Z,78.76
2018-12-29T07:27:36.784Z,78.92
2018-12-29T07:30:08.743Z,79.20
2018-12-29T07:32:40.718Z,79.48
2018-12-29T07:35:12.698Z,79.22
2018-12-29T07:37:44.673Z,79.75
2018-12-29T07:40:16.650Z,79.98
2018-12-29T07:42:48.682Z,80.38
2018-12-29T07:45:20.650Z,80.27
2018-12-29T07:47:52.649Z,80.39
2018-12-29T07:50:24.625Z,80.27
2018-12-29T07:52:56.580Z,80.36
2018-12-29T07:55:28.564Z,80.33
2018-12-29T07:58:00.536Z,80.51
2018-12-29T08:00:32.588Z,80.45
2018-12-29T08:03:04.600Z,80.61
2018-12-29T08:05:36.577Z,80.49
2018-12-29T08:08:08.564Z,80.77
2018-12-29T08:10:40.533Z,81.07
2018-12-29T08:13:12.517Z,81.42
2018-12-29T08:15:44.490Z,81.65
2018-12-29T08:18:16.488Z,81.67
2018-12-29T08:20:48.460Z,81.32
2018-12-29T08:23:20.459Z,81.18
2018-12-29T08:25:52.469Z,81.49
2018-12-29T08:28:24.453Z,81.37
2018-12-29T08:30:56.438Z,81.40
2018-12-29T08:33:28.446Z,81.47
2018-12-29T08:36:00.459Z,81.41
2018-12-29T08:38:32.475Z,81.54
2018-12-29T08:41:04.502Z,81.77
2018-12-29T08:43:36.455Z,80.58
2018-12-29T08:46:08.471Z,81.07
2018-12-29T08:48:40.452Z,80.97
2018-12-29T08:51:12.443Z,80.91
2018-12-29T08:53:44.417Z,80.75
2018-12-29T08:56:16.439Z,80.49
2018-12-29T08:58:48.456Z,80.50
2018-12-29T09:01:20.462Z,80.40
2018-12-29T09:03:52.468Z,79.71
2018-12-29T09:06:24.469Z,79.68
2018-12-29T09:08:56.436Z,79.71
2018-12-29T09:11:28.460Z,79.46
2018-12-29T09:14:00.443Z,79.10
2018-12-29T09:16:32.445Z,78.89
2018-12-29T09:19:04.426Z,78.37
2018-12-29T09:21:36.398Z,78.42
2018-12-29T09:24:08.417Z,77.76
2018-12-29T09:26:40.418Z,78.17
2018-12-29T09:29:12.438Z,77.65
2018-12-29T09:31:44.458Z,77.79
2018-12-29T09:34:22.364Z,77.65
2018-12-29T09:36:50.489Z,77.83
2018-12-29T09:39:22.438Z,77.44
2018-12-29T09:41:54.441Z,77.42
2018-12-29T09:44:26.440Z,77.52
2018-12-29T09:46:58.426Z,77.36
2018-12-29T09:49:30.462Z,77.67
2018-12-29T09:52:02.447Z,77.20
2018-12-29T09:54:34.479Z,77.58
2018-12-29T09:57:06.448Z,78.26
2018-12-29T09:59:38.466Z,78.52
2018-12-29T10:02:10.469Z,77.96
2018-12-29T10:04:42.563Z,77.75
2018-12-29T10:07:14.553Z,77.04
2018-12-29T10:09:46.586Z,77.76
2018-12-29T10:12:18.549Z,77.82
2018-12-29T10:14:50.577Z,77.80
2018-12-29T10:17:26.890Z,78.29
2018-12-29T10:19:56.493Z,77.41
2018-12-29T10:22:28.511Z,77.44
2018-12-29T10:25:00.519Z,77.54
2018-12-29T10:27:32.505Z,76.86
2018-12-29T10:30:04.923Z,76.51
2018-12-29T10:32:36.912Z,76.78
2018-12-29T10:35:08.973Z,76.87
2018-12-29T10:37:40.958Z,77.50
2018-12-29T10:40:12.989Z,77.90
2018-12-29T10:42:44.985Z,78.09
2018-12-29T10:45:16.997Z,78.12
2018-12-29T10:47:48.982Z,78.28
2018-12-29T10:50:21.115Z,77.99
2018-12-29T10:52:53.108Z,77.64
2018-12-29T10:55:25.100Z,77.84
2018-12-29T10:57:57.092Z,77.79
2018-12-29T11:00:34.892Z,77.99
2018-12-29T11:03:03.047Z,78.90
2018-12-29T11:05:35.114Z,78.27
2018-12-29T11:08:07.176Z,78.83
2018-12-29T11:10:39.198Z,79.03
2018-12-29T11:13:11.207Z,79.49
2018-12-29T11:15:43.193Z,79.96
2018-12-29T11:18:15.245Z,79.91
2018-12-29T11:20:47.283Z,78.99
2018-12-29T11:23:19.359Z,78.82
2018-12-29T11:25:51.370Z,78.80
2018-12-29T11:28:23.385Z,79.30
2018-12-29T11:30:55.432Z,78.45
2018-12-29T11:33:27.428Z,78.66
2018-12-29T11:35:59.418Z,78.55
2018-12-29T11:38:31.604Z,78.35
2018-12-29T11:41:03.581Z,78.74
2018-12-29T11:43:35.592Z,78.95
2018-12-29T11:46:07.569Z,79.04
2018-12-29T11:48:39.591Z,79.23
2018-12-29T11:51:11.596Z,78.69
2018-12-29T11:53:43.615Z,77.71
2018-12-29T11:56:15.648Z,77.86
2018-12-29T11:58:47.675Z,78.44
2018-12-29T12:01:19.690Z,78.42
2018-12-29T12:03:51.782Z,78.06
2018-12-29T12:06:23.799Z,78.02
2018-12-29T12:08:55.833Z,78.16
2018-12-29T12:11:27.837Z,78.42
2018-12-29T12:13:59.862Z,78.48
2018-12-29T12:16:31.876Z,78.43
2018-12-29T12:19:03.890Z,78.31
2018-12-29T12:21:35.899Z,78.47
2018-12-29T12:24:07.877Z,76.65
2018-12-29T12:26:39.851Z,77.31
2018-12-29T12:29:11.887Z,77.06
2018-12-29T12:31:44.214Z,77.18
2018-12-29T12:34:16.232Z,77.31
2018-12-29T12:36:48.211Z,77.31
2018-12-29T12:39:20.226Z,77.22
2018-12-29T12:41:52.257Z,77.50
2018-12-29T12:44:24.214Z,77.25
2018-12-29T12:46:56.234Z,76.89
2018-12-29T12:49:28.270Z,76.43
2018-12-29T12:52:00.290Z,76.48
2018-12-29T12:54:32.276Z,76.42
2018-12-29T12:57:04.309Z,76.29
2018-12-29T12:59:36.715Z,76.48
2018-12-29T13:02:08.726Z,76.83
2018-12-29T13:04:41.154Z,76.65
2018-12-29T13:07:13.177Z,76.92
2018-12-29T13:09:46.543Z,77.16
2018-12-29T13:12:18.647Z,77.28
2018-12-29T13:14:51.072Z,76.87
2018-12-29T13:17:23.107Z,76.36
2018-12-29T13:19:55.122Z,76.51
2018-12-29T13:22:27.149Z,76.44
2018-12-29T13:24:59.560Z,76.47
2018-12-29T13:27:31.605Z,76.73
2018-12-29T13:30:04.056Z,76.00
2018-12-29T13:32:36.109Z,76.10
2018-12-29T13:35:08.550Z,76.59
2018-12-29T13:37:40.531Z,77.03
2018-12-29T13:40:12.536Z,76.52
2018-12-29T13:42:44.515Z,76.97
2018-12-29T13:45:16.736Z,76.90
2018-12-29T13:47:48.788Z,76.97
2018-12-29T13:50:20.817Z,77.26
2018-12-29T13:52:52.817Z,76.82
2018-12-29T13:55:25.100Z,76.81
2018-12-29T13:57:57.127Z,76.70
2018-12-29T14:00:29.117Z,75.87
2018-12-29T14:03:01.147Z,75.36
2018-12-29T14:05:33.151Z,75.82
2018-12-29T14:08:05.184Z,76.20
2018-12-29T14:10:37.158Z,76.53
2018-12-29T14:13:09.163Z,76.65
2018-12-29T14:15:41.197Z,77.12
2018-12-29T14:18:13.202Z,77.31
2018-12-29T14:20:45.215Z,76.96
2018-12-29T14:23:17.232Z,76.78
2018-12-29T14:25:49.274Z,77.04
2018-12-29T14:28:21.305Z,77.11
2018-12-29T14:30:53.307Z,77.31
2018-12-29T14:33:25.353Z,77.56
2018-12-29T14:35:57.364Z,77.58
2018-12-29T14:38:29.372Z,77.54
2018-12-29T14:41:01.397Z,77.33
2018-12-29T14:43:33.381Z,77.62
2018-12-29T14:46:05.392Z,77.80
2018-12-29T14:48:37.418Z,77.94
2018-12-29T14:51:09.479Z,77.89
2018-12-29T14:53:41.459Z,78.22
2018-12-29T14:56:13.514Z,78.23
2018-12-29T14:58:45.496Z,78.37
2018-12-29T15:01:17.509Z,78.31
2018-12-29T15:03:49.517Z,78.33
2018-12-29T15:06:21.530Z,78.21
2018-12-29T15:08:53.562Z,78.52
2018-12-29T15:11:25.639Z,78.42
2018-12-29T15:13:57.675Z,78.50
2018-12-29T15:16:29.730Z,78.37
2018-12-29T15:19:01.753Z,78.55
2018-12-29T15:21:34.163Z,78.46
2018-12-29T15:24:06.193Z,78.44
2018-12-29T15:26:38.242Z,78.89
2018-12-29T15:29:10.674Z,78.95
2018-12-29T15:31:42.726Z,79.18
2018-12-29T15:34:14.818Z,79.25
2018-12-29T15:36:46.834Z,79.04
2018-12-29T15:39:20.663Z,79.65
2018-12-29T15:41:52.693Z,79.77
2018-12-29T15:44:24.807Z,80.06
2018-12-29T15:46:57.169Z,79.93
2018-12-29T15:49:29.180Z,79.90
2018-12-29T15:52:01.201Z,80.04
2018-12-29T15:54:33.631Z,80.12
2018-12-29T15:57:05.618Z,80.23
2018-12-29T15:59:37.645Z,80.38
2018-12-29T16:02:09.670Z,80.50
2018-12-29T16:04:41.659Z,80.35
2018-12-29T16:07:13.712Z,80.44
2018-12-29T16:09:45.712Z,80.37
2018-12-29T16:12:18.091Z,80.38
2018-12-29T16:14:50.128Z,80.02
2018-12-29T16:17:22.137Z,79.60
2018-12-29T16:19:54.446Z,79.78
2018-12-29T16:22:26.412Z,79.16
2018-12-29T16:24:58.450Z,79.74
2018-12-29T16:27:30.468Z,78.92
2018-12-29T16:30:02.523Z,79.46
2018-12-29T16:32:34.575Z,79.99
2018-12-29T16:35:06.623Z,80.26
2018-12-29T16:37:38.619Z,80.26
2018-12-29T16:40:10.682Z,80.07
2018-12-29T16:42:42.691Z,80.12
2018-12-29T16:45:14.737Z,80.39
2018-12-29T16:47:46.730Z,80.45
2018-12-29T16:50:18.746Z,80.44
2018-12-29T16:52:50.802Z,80.61
2018-12-29T16:55:22.857Z,80.49
2018-12-29T16:57:54.900Z,80.66
2018-12-29T17:00:26.988Z,80.65
2018-12-29T17:02:59.007Z,80.60
2018-12-29T17:05:31.052Z,80.31
2018-12-29T17:08:03.476Z,80.38
2018-12-29T17:10:35.580Z,80.71
2018-12-29T17:13:07.589Z,80.76
2018-12-29T17:15:39.642Z,80.48
2018-12-29T17:18:12.091Z,80.47
2018-12-29T17:20:44.092Z,80.75
2018-12-29T17:23:16.125Z,80.56
2018-12-29T17:25:48.142Z,80.50
2018-12-29T17:28:20.184Z,80.83
2018-12-29T17:30:52.184Z,81.30
2018-12-29T17:33:24.257Z,81.02
2018-12-29T17:35:56.267Z,81.27
2018-12-29T17:38:28.317Z,81.23
2018-12-29T17:41:00.345Z,80.89
2018-12-29T17:43:32.575Z,80.60
2018-12-29T17:46:04.626Z,80.66
2018-12-29T17:48:36.613Z,80.87
2018-12-29T17:51:08.616Z,80.92
2018-12-29T17:53:47.733Z,80.79
2018-12-29T17:56:14.553Z,81.14
2018-12-29T17:58:46.611Z,81.51
2018-12-29T18:01:18.648Z,81.59
2018-12-29T18:03:50.697Z,81.41
2018-12-29T18:06:22.759Z,81.47
2018-12-29T18:08:54.805Z,81.43
2018-12-29T18:11:26.813Z,81.21
2018-12-29T18:13:58.915Z,81.21
2018-12-29T18:16:30.933Z,81.17
2018-12-29T18:19:02.982Z,81.21
2018-12-29T18:21:34.944Z,81.52
2018-12-29T18:24:06.993Z,81.61
2018-12-29T18:26:39.063Z,81.59
2018-12-29T18:29:11.613Z,81.29
2018-12-29T18:31:43.643Z,81.21
2018-12-29T18:34:15.692Z,80.17
2018-12-29T18:36:47.752Z,80.27
2018-12-29T18:39:19.958Z,80.85
2018-12-29T18:41:51.963Z,81.07
2018-12-29T18:44:23.981Z,81.26
2018-12-29T18:46:56.306Z,81.55
2018-12-29T18:49:28.615Z,81.68
2018-12-29T18:52:00.700Z,81.64
2018-12-29T18:54:32.748Z,81.46
2018-12-29T18:57:04.837Z,81.59
2018-12-29T18:59:36.859Z,81.61
2018-12-29T19:02:08.938Z,81.65
2018-12-29T19:04:41.341Z,81.61
2018-12-29T19:07:13.434Z,81.87
2018-12-29T19:09:45.930Z,81.90
2018-12-29T19:12:18.092Z,81.82
2018-12-29T19:14:50.107Z,81.78
2018-12-29T19:17:22.175Z,81.49
2018-12-29T19:19:54.598Z,81.42
2018-12-29T19:22:26.682Z,81.62
2018-12-29T19:25:00.304Z,81.68
2018-12-29T19:27:32.667Z,81.60
2018-12-29T19:30:05.775Z,81.66
2018-12-29T19:32:38.273Z,81.34
2018-12-29T19:35:10.334Z,81.50
2018-12-29T19:37:42.418Z,81.63
2018-12-29T19:40:14.472Z,81.16
2018-12-29T19:42:46.924Z,81.05
2018-12-29T19:45:18.935Z,80.21
2018-12-29T19:47:51.200Z,80.49
2018-12-29T19:50:23.692Z,80.33
2018-12-29T19:52:55.731Z,79.95
2018-12-29T19:55:27.761Z,80.34
2018-12-29T19:57:59.859Z,80.63
2018-12-29T20:00:32.269Z,80.57
2018-12-29T20:03:04.351Z,80.74
2018-12-29T20:05:36.589Z,80.96
2018-12-29T20:08:08.647Z,81.04
2018-12-29T20:10:40.695Z,81.49
2018-12-29T20:13:12.763Z,81.64
2018-12-29T20:15:44.783Z,81.59
2018-12-29T20:18:16.866Z,81.68
2018-12-29T20:20:48.934Z,80.81
2018-12-29T20:23:21.271Z,81.72
2018-12-29T20:25:53.368Z,81.69
2018-12-29T20:28:25.420Z,82.09
2018-12-29T20:30:57.537Z,82.33
2018-12-29T20:33:29.883Z,82.43
2018-12-29T20:36:01.957Z,82.33
2018-12-29T20:38:34.011Z,82.07
2018-12-29T20:41:06.155Z,81.43
2018-12-29T20:43:38.630Z,80.20
2018-12-29T20:46:10.674Z,80.46
2018-12-29T20:49:23.464Z,79.32
2018-12-29T20:51:55.492Z,79.18
2018-12-29T20:54:27.508Z,79.18
2018-12-29T20:56:59.600Z,78.38
2018-12-29T20:59:33.544Z,78.89
2018-12-29T21:02:05.585Z,79.23
2018-12-29T21:04:37.739Z,79.77
2018-12-29T21:07:09.808Z,79.66
2018-12-29T21:09:41.895Z,80.33
2018-12-29T21:12:13.961Z,80.87
2018-12-29T21:14:46.010Z,81.20
2018-12-29T21:17:18.031Z,81.59
2018-12-29T21:19:50.153Z,81.70
2018-12-29T21:22:22.218Z,81.34
2018-12-29T21:24:54.203Z,82.06
2018-12-29T21:27:26.316Z,82.53
2018-12-29T21:29:58.397Z,82.76
2018-12-29T21:32:32.345Z,83.14
2018-12-29T21:35:04.626Z,83.28
2018-12-29T21:37:56.104Z,83.42
2018-12-29T21:40:28.589Z,83.77
2018-12-29T21:43:00.633Z,84.16
2018-12-29T21:45:32.690Z,84.36
2018-12-29T21:48:04.766Z,84.40
2018-12-29T21:50:36.897Z,84.41
2018-12-29T21:53:08.956Z,85.40
2018-12-29T21:55:40.994Z,85.17
2018-12-29T21:58:13.091Z,85.52
2018-12-29T22:00:45.080Z,85.87
2018-12-29T22:03:17.131Z,85.87
2018-12-29T22:05:49.200Z,85.87
2018-12-29T22:08:21.254Z,86.01
2018-12-29T22:10:53.295Z,85.76
2018-12-29T22:13:25.662Z,85.82
2018-12-29T22:15:57.665Z,85.91
2018-12-29T22:18:29.757Z,85.80
2018-12-29T22:21:01.818Z,86.21
2018-12-29T22:23:33.871Z,86.40
2018-12-29T22:26:05.938Z,86.55
2018-12-29T22:28:37.997Z,86.81
2018-12-29T22:31:10.052Z,86.73
2018-12-29T22:33:42.070Z,87.02
2018-12-29T22:36:14.129Z,86.95
2018-12-29T22:38:46.115Z,86.98
2018-12-29T22:41:18.154Z,86.20
2018-12-29T22:43:50.149Z,86.47
2018-12-29T22:46:22.399Z,86.29
2018-12-29T22:48:54.401Z,86.78
2018-12-29T22:51:26.442Z,86.97
2018-12-29T22:53:58.464Z,87.13
2018-12-29T22:56:30.964Z,87.13
2018-12-29T22:59:03.028Z,87.23
2018-12-29T23:01:35.182Z,87.28
2018-12-29T23:04:07.204Z,87.25
2018-12-29T23:06:39.349Z,87.23
2018-12-29T23:09:11.747Z,86.61
2018-12-29T23:11:43.793Z,86.76
2018-12-29T23:14:15.922Z,86.99
2018-12-29T23:16:47.925Z,86.87
2018-12-29T23:19:20.136Z,86.67
2018-12-29T23:21:52.164Z,86.66
2018-12-29T23:24:24.138Z,86.19
2018-12-29T23:26:56.166Z,86.15
2018-12-29T23:29:28.165Z,86.20
2018-12-29T23:32:00.203Z,85.28
2018-12-29T23:34:32.611Z,86.16
2018-12-29T23:37:04.626Z,86.41
2018-12-29T23:39:36.706Z,86.42
2018-12-29T23:42:08.727Z,86.33
2018-12-29T23:44:40.719Z,85.92
2018-12-29T23:47:12.813Z,85.83
2018-12-29T23:49:44.842Z,85.81
2018-12-29T23:52:17.250Z,85.79
2018-12-29T23:54:49.283Z,86.08
2018-12-29T23:57:21.520Z,86.32
2018-12-29T23:59:53.539Z,86.29
